createdAt,value
2023-02-17T00:04:46.168Z,3.17
2023-02-17T00:09:48.259Z,3.17
2023-02-17T00:14:50.348Z,3.16
2023-02-17T00:19:55.516Z,3.05
2023-02-17T00:24:57.681Z,3.14
2023-02-17T00:29:59.841Z,3.09
2023-02-17T00:35:01.932Z,3.10
2023-02-17T00:40:04.314Z,3.19
2023-02-17T00:45:07.077Z,3.14
2023-02-17T00:50:09.573Z,3.23
2023-02-17T00:55:11.698Z,3.19
2023-02-17T01:00:14.383Z,3.11
2023-02-17T01:05:16.625Z,3.16
2023-02-17T01:10:19.039Z,3.08
2023-02-17T01:15:21.098Z,3.19
2023-02-17T01:20:23.193Z,3.27
2023-02-17T01:25:25.277Z,3.42
2023-02-17T01:30:27.445Z,3.52
2023-02-17T01:35:29.515Z,3.57
2023-02-17T01:40:31.673Z,3.64
2023-02-17T01:45:37.678Z,3.67
2023-02-17T01:51:11.281Z,3.68
2023-02-17T01:56:15.617Z,3.69
2023-02-17T02:01:18.180Z,3.56
2023-02-17T02:06:25.451Z,3.59
2023-02-17T02:11:27.612Z,3.43
2023-02-17T02:16:35.327Z,3.45
2023-02-17T02:22:19.781Z,3.30
2023-02-17T02:27:43.953Z,3.31
2023-02-17T02:33:03.852Z,3.24
2023-02-17T02:38:47.345Z,3.20
2023-02-17T02:43:49.803Z,3.19
2023-02-17T02:48:52.454Z,3.12
2023-02-17T02:54:31.797Z,3.15
2023-02-17T02:59:49.753Z,3.15
2023-02-17T03:04:57.456Z,3.10
2023-02-17T03:10:00.642Z,3.09
2023-02-17T03:15:10.554Z,3.00
2023-02-17T03:20:14.770Z,2.87
2023-02-17T03:25:16.927Z,2.69
2023-02-17T03:30:19.335Z,2.62
2023-02-17T03:35:21.470Z,2.94
2023-02-17T03:40:23.633Z,3.13
2023-02-17T03:45:25.846Z,3.15
2023-02-17T03:50:27.962Z,3.23
2023-02-17T03:55:30.062Z,3.46
2023-02-17T04:00:32.367Z,3.54
2023-02-17T04:05:34.417Z,3.56
2023-02-17T04:10:36.474Z,3.55
2023-02-17T04:15:39.262Z,3.53
2023-02-17T04:20:41.843Z,3.38
2023-02-17T04:25:44.571Z,3.40
2023-02-17T04:30:48.339Z,3.51
2023-02-17T04:35:50.506Z,3.50
2023-02-17T04:40:55.466Z,3.53
2023-02-17T04:45:57.802Z,3.38
2023-02-17T04:51:00.006Z,3.33
2023-02-17T04:56:02.127Z,3.24
2023-02-17T05:01:04.393Z,3.46
2023-02-17T05:06:07.120Z,3.53
2023-02-17T05:11:09.358Z,3.58
2023-02-17T05:16:11.495Z,3.53
2023-02-17T05:21:13.637Z,3.57
2023-02-17T05:26:15.858Z,3.66
2023-02-17T05:31:18.059Z,3.60
2023-02-17T05:36:20.236Z,3.71
2023-02-17T05:41:22.421Z,3.76
2023-02-17T05:46:24.495Z,3.72
2023-02-17T05:51:26.597Z,3.95
2023-02-17T05:56:28.718Z,4.03
2023-02-17T06:01:30.789Z,4.23
2023-02-17T06:06:32.849Z,4.26
2023-02-17T06:11:34.926Z,4.34
2023-02-17T06:16:36.995Z,4.50
2023-02-17T06:21:39.188Z,4.47
2023-02-17T06:26:41.489Z,4.57
2023-02-17T06:31:43.602Z,4.61
2023-02-17T06:36:45.997Z,4.55
2023-02-17T06:41:48.109Z,4.71
2023-02-17T06:46:50.234Z,4.75
2023-02-17T06:51:52.278Z,4.77
2023-02-17T06:56:54.368Z,4.82
2023-02-17T07:01:56.585Z,4.84
2023-02-17T07:06:58.820Z,5.00
2023-02-17T07:12:01.340Z,4.95
2023-02-17T07:17:03.830Z,5.05
2023-02-17T07:22:05.933Z,5.13
2023-02-17T07:27:10.605Z,5.21
2023-02-17T07:32:13.082Z,5.21
2023-02-17T07:37:21.887Z,5.23
2023-02-17T07:42:24.332Z,5.33
2023-02-17T07:47:26.394Z,5.49
2023-02-17T07:52:28.522Z,5.52
2023-02-17T07:57:30.744Z,5.61
2023-02-17T08:02:32.806Z,5.96
2023-02-17T08:07:34.994Z,6.04
2023-02-17T08:12:55.324Z,6.42
2023-02-17T08:17:58.530Z,6.73
2023-02-17T08:23:01.154Z,7.01
2023-02-17T08:28:05.933Z,7.99
2023-02-17T08:33:08.036Z,8.66
2023-02-17T08:38:10.151Z,9.32
2023-02-17T08:43:12.271Z,9.13
2023-02-17T08:48:14.352Z,8.81
2023-02-17T08:53:16.451Z,9.10
2023-02-17T08:58:18.638Z,9.51
2023-02-17T09:03:20.908Z,9.96
2023-02-17T09:08:23.461Z,10.42
2023-02-17T09:13:26.826Z,10.89
2023-02-17T09:18:28.971Z,11.59
2023-02-17T09:23:31.063Z,11.77
2023-02-17T09:28:34.516Z,12.11
2023-02-17T09:33:36.978Z,12.41
2023-02-17T09:38:41.790Z,12.91
2023-02-17T09:43:45.061Z,13.07
2023-02-17T09:48:49.897Z,12.85
2023-02-17T09:53:55.578Z,12.66
2023-02-17T09:59:02.317Z,12.82
2023-02-17T10:04:14.926Z,12.61
2023-02-17T10:09:22.824Z,12.18
2023-02-17T10:14:36.778Z,11.63
2023-02-17T10:20:05.029Z,11.46
2023-02-17T10:25:30.082Z,11.40
2023-02-17T10:30:35.277Z,11.69
2023-02-17T10:35:53.515Z,12.03
2023-02-17T10:40:56.500Z,11.96
2023-02-17T10:46:03.174Z,11.96
2023-02-17T10:51:05.585Z,12.10
2023-02-17T10:56:17.483Z,12.11
2023-02-17T11:01:20.306Z,11.84
2023-02-17T11:06:23.365Z,11.75
2023-02-17T11:11:28.063Z,11.70
2023-02-17T11:16:47.317Z,11.67
2023-02-17T11:21:52.074Z,11.71
2023-02-17T11:27:11.866Z,11.67
2023-02-17T11:32:14.552Z,11.44
2023-02-17T11:37:21.335Z,11.71
2023-02-17T11:42:24.667Z,11.60
